Time;durP1;ratioP1;P1;durP2;ratioP2;P2;SDS_P1;SDS_P2;PMS_P1;PMS_P2;Temp;Humidity;BMP_temperature;BMP_pressure;BME280_temperature;BME280_humidity;BME280_pressure;Samples;Min_cycle;Max_cycle;Signal;HPM_P1;HPM_P2
2022/04/24 00:01:47;;;;;;;6.13;3.93;;;;;;;;;;4977673;28;20235;-79
2022/04/24 00:04:14;;;;;;;7.43;4.07;;;;;;;;;;4976516;28;20224;-78
2022/04/24 00:06:46;;;;;;;5.37;3.63;;;;;;;;;;4975182;28;20237;-78
2022/04/24 00:09:14;;;;;;;5.10;3.77;;;;;;;;;;4980081;28;20815;-78
2022/04/24 00:11:41;;;;;;;6.03;3.80;;;;;;;;;;4973896;28;20240;-79
2022/04/24 00:14:10;;;;;;;6.33;4.00;;;;;;;;;;4982112;28;20200;-79
2022/04/24 00:16:37;;;;;;;6.70;4.60;;;;;;;;;;4977642;28;20217;-79
2022/04/24 00:19:05;;;;;;;6.50;4.27;;;;;;;;;;4986740;28;20197;-78
2022/04/24 00:21:32;;;;;;;6.00;4.20;;;;;;;;;;4978413;28;20228;-79
2022/04/24 00:24:00;;;;;;;8.30;3.93;;;;;;;;;;4981631;28;20225;-78
2022/04/24 00:26:28;;;;;;;6.57;4.27;;;;;;;;;;4981082;28;20208;-79
2022/04/24 00:28:55;;;;;;;8.47;4.47;;;;;;;;;;4982432;28;20257;-78
2022/04/24 00:31:22;;;;;;;6.93;4.23;;;;;;;;;;4977551;28;20229;-78
2022/04/24 00:33:49;;;;;;;7.60;4.40;;;;;;;;;;4979324;28;20244;-78
2022/04/24 00:36:16;;;;;;;6.93;4.43;;;;;;;;;;4977969;28;20771;-78
2022/04/24 00:38:43;;;;;;;6.70;4.73;;;;;;;;;;4980627;28;20841;-78
2022/04/24 00:41:12;;;;;;;6.77;4.10;;;;;;;;;;4981728;28;20763;-79
2022/04/24 00:43:39;;;;;;;11.23;4.70;;;;;;;;;;4978935;28;20239;-80
2022/04/24 00:46:16;;;;;;;6.83;4.47;;;;;;;;;;4980328;28;20205;-78
2022/04/24 00:48:43;;;;;;;7.13;4.53;;;;;;;;;;4973114;28;20633;-78
2022/04/24 00:51:11;;;;;;;6.87;4.43;;;;;;;;;;4983693;28;20307;-78
2022/04/24 00:53:38;;;;;;;10.07;4.57;;;;;;;;;;4978443;28;20898;-79
2022/04/24 00:56:06;;;;;;;7.13;4.70;;;;;;;;;;4978856;28;20201;-79
2022/04/24 00:58:35;;;;;;;7.20;4.43;;;;;;;;;;4971851;28;20201;-78
2022/04/24 01:01:02;;;;;;;6.57;4.50;;;;;;;;;;4970701;28;20225;-79
2022/04/24 01:03:30;;;;;;;7.13;4.87;;;;;;;;;;4976410;28;20210;-79
2022/04/24 01:05:57;;;;;;;8.27;4.87;;;;;;;;;;4971358;28;20870;-80
2022/04/24 01:08:24;;;;;;;7.00;4.70;;;;;;;;;;4975272;28;20221;-79
2022/04/24 01:10:51;;;;;;;7.23;4.87;;;;;;;;;;4973650;28;20253;-79
2022/04/24 01:13:18;;;;;;;6.30;4.50;;;;;;;;;;4975782;28;20264;-79
2022/04/24 01:15:47;;;;;;;7.93;4.97;;;;;;;;;;4974987;28;20201;-79
2022/04/24 01:18:14;;;;;;;8.30;5.20;;;;;;;;;;4975377;28;20216;-79
2022/04/24 01:20:43;;;;;;;6.10;4.33;;;;;;;;;;4976098;28;20315;-79
2022/04/24 01:23:10;;;;;;;6.00;4.33;;;;;;;;;;4974728;28;20626;-79
2022/04/24 01:25:37;;;;;;;6.90;4.93;;;;;;;;;;4975365;28;20236;-79
2022/04/24 01:28:08;;;;;;;6.97;4.70;;;;;;;;;;4977642;28;20221;-78
2022/04/24 01:30:35;;;;;;;6.43;4.50;;;;;;;;;;4975324;28;20284;-80
2022/04/24 01:33:03;;;;;;;7.47;4.50;;;;;;;;;;4978144;28;20305;-79
2022/04/24 01:35:30;;;;;;;8.70;5.07;;;;;;;;;;4977973;28;20754;-79
2022/04/24 01:37:58;;;;;;;8.07;5.20;;;;;;;;;;4977798;28;20324;-79
2022/04/24 01:40:26;;;;;;;6.57;4.63;;;;;;;;;;4978296;28;20209;-79
2022/04/24 01:42:53;;;;;;;8.27;5.17;;;;;;;;;;4977233;28;20208;-76
2022/04/24 01:45:20;;;;;;;7.53;4.87;;;;;;;;;;4976754;28;20225;-78
2022/04/24 01:47:47;;;;;;;7.17;4.90;;;;;;;;;;4975403;28;20221;-78
2022/04/24 01:50:14;;;;;;;8.83;4.93;;;;;;;;;;4975591;28;20299;-78
2022/04/24 01:55:11;;;;;;;6.83;4.80;;;;;;;;;;4941755;29;20684;-77
2022/04/24 01:57:38;;;;;;;7.87;5.10;;;;;;;;;;4947634;29;20206;-78
2022/04/24 02:00:06;;;;;;;8.43;5.03;;;;;;;;;;4946058;29;20249;-77
2022/04/24 02:02:33;;;;;;;6.80;5.03;;;;;;;;;;4925441;29;20211;-77
2022/04/24 02:05:00;;;;;;;7.63;5.03;;;;;;;;;;4924101;29;20207;-77
2022/04/24 02:10:15;;;;;;;7.37;5.17;;;;;;;;;;4929175;29;20215;-80
2022/04/24 02:12:44;;;;;;;8.13;5.43;;;;;;;;;;4929847;29;20540;-79
2022/04/24 02:15:12;;;;;;;8.57;5.10;;;;;;;;;;4926674;29;20212;-79
2022/04/24 02:17:39;;;;;;;8.10;5.53;;;;;;;;;;4929592;29;20215;-78
2022/04/24 02:20:06;;;;;;;8.10;4.80;;;;;;;;;;4928601;29;20212;-78
2022/04/24 02:22:34;;;;;;;7.20;4.80;;;;;;;;;;4923708;29;20594;-78
2022/04/24 02:25:01;;;;;;;8.17;4.97;;;;;;;;;;4923136;29;20213;-78
2022/04/24 02:27:30;;;;;;;9.53;5.13;;;;;;;;;;4920048;29;20211;-78
2022/04/24 02:29:57;;;;;;;9.17;5.50;;;;;;;;;;4923868;29;20217;-77
2022/04/24 02:32:24;;;;;;;8.30;5.10;;;;;;;;;;4919585;29;20263;-77
2022/04/24 02:34:51;;;;;;;7.43;4.60;;;;;;;;;;4921877;29;20278;-77
2022/04/24 02:37:19;;;;;;;7.37;4.70;;;;;;;;;;4927405;29;21888;-79
2022/04/24 02:39:46;;;;;;;8.57;5.67;;;;;;;;;;4924406;29;20207;-77
2022/04/24 02:42:13;;;;;;;8.87;5.57;;;;;;;;;;4919769;29;20631;-77
2022/04/24 02:44:42;;;;;;;10.00;5.50;;;;;;;;;;4923804;29;20206;-78
2022/04/24 02:47:09;;;;;;;7.87;5.27;;;;;;;;;;4926955;29;20218;-78
2022/04/24 02:49:36;;;;;;;8.77;5.40;;;;;;;;;;4935720;29;20227;-78
2022/04/24 02:52:03;;;;;;;9.37;5.37;;;;;;;;;;4919814;29;20241;-76
2022/04/24 02:54:31;;;;;;;8.73;5.53;;;;;;;;;;4919713;29;20302;-77
2022/04/24 02:56:58;;;;;;;8.30;5.57;;;;;;;;;;4920940;29;20208;-77
2022/04/24 02:59:25;;;;;;;8.60;5.60;;;;;;;;;;4919834;29;20203;-77
2022/04/24 03:01:54;;;;;;;9.73;5.83;;;;;;;;;;4918959;29;20219;-77
2022/04/24 03:04:21;;;;;;;9.93;5.90;;;;;;;;;;4922354;29;20215;-77
2022/04/24 03:06:48;;;;;;;7.77;5.47;;;;;;;;;;4918809;29;20235;-77
2022/04/24 03:09:17;;;;;;;10.80;6.27;;;;;;;;;;4919718;29;20712;-78
2022/04/24 03:11:44;;;;;;;11.70;5.87;;;;;;;;;;4919341;29;20231;-78
2022/04/24 03:14:12;;;;;;;9.37;6.00;;;;;;;;;;4919681;29;20207;-77
2022/04/24 03:16:39;;;;;;;8.47;5.43;;;;;;;;;;4920770;29;20726;-78
2022/04/24 03:19:08;;;;;;;8.70;5.87;;;;;;;;;;4919792;29;20344;-78
2022/04/24 03:21:35;;;;;;;10.13;5.97;;;;;;;;;;4921978;29;20241;-78
2022/04/24 03:24:02;;;;;;;10.93;6.40;;;;;;;;;;4919817;29;20338;-77
2022/04/24 03:26:29;;;;;;;9.83;6.17;;;;;;;;;;4923939;29;20214;-78
2022/04/24 03:28:57;;;;;;;8.80;5.90;;;;;;;;;;4921479;29;20228;-74
2022/04/24 03:31:24;;;;;;;10.17;6.33;;;;;;;;;;4922964;29;20242;-79
2022/04/24 03:33:52;;;;;;;9.90;5.87;;;;;;;;;;4923944;29;20213;-76
2022/04/24 03:36:20;;;;;;;11.77;6.07;;;;;;;;;;4922451;29;20671;-79
2022/04/24 03:38:50;;;;;;;11.23;6.10;;;;;;;;;;4920467;29;20207;-79
2022/04/24 03:41:18;;;;;;;8.43;5.70;;;;;;;;;;4923331;29;20247;-77
2022/04/24 03:43:45;;;;;;;8.57;5.70;;;;;;;;;;4920633;29;20217;-78
2022/04/24 03:46:13;;;;;;;9.40;6.13;;;;;;;;;;4923611;29;20677;-78
2022/04/24 03:48:40;;;;;;;11.13;6.07;;;;;;;;;;4922428;29;20223;-78
2022/04/24 03:51:08;;;;;;;9.27;6.10;;;;;;;;;;4921712;29;20241;-78
2022/04/24 03:53:37;;;;;;;10.33;6.00;;;;;;;;;;4919953;29;20669;-78
2022/04/24 03:56:04;;;;;;;10.63;6.90;;;;;;;;;;4921145;29;20232;-78
2022/04/24 03:58:31;;;;;;;9.83;5.80;;;;;;;;;;4923017;29;20204;-78
2022/04/24 04:00:59;;;;;;;12.60;6.50;;;;;;;;;;4923127;29;20242;-78
2022/04/24 04:03:26;;;;;;;12.47;6.70;;;;;;;;;;4922318;29;20222;-78
2022/04/24 04:05:53;;;;;;;10.70;6.30;;;;;;;;;;4922422;29;20697;-78
2022/04/24 04:08:20;;;;;;;11.50;7.13;;;;;;;;;;4923457;29;20285;-79
2022/04/24 04:10:49;;;;;;;10.07;6.53;;;;;;;;;;4921542;29;20327;-77
2022/04/24 04:13:16;;;;;;;9.53;5.90;;;;;;;;;;4921758;29;20207;-77
2022/04/24 04:15:43;;;;;;;12.80;7.00;;;;;;;;;;4923196;29;20219;-78
2022/04/24 04:18:10;;;;;;;11.23;7.10;;;;;;;;;;4923938;29;20305;-77
2022/04/24 04:20:38;;;;;;;11.20;6.90;;;;;;;;;;4930632;29;20270;-79
2022/04/24 04:23:05;;;;;;;11.83;6.80;;;;;;;;;;4925228;29;20383;-77
2022/04/24 04:25:32;;;;;;;11.77;6.57;;;;;;;;;;4924424;29;20792;-79
2022/04/24 04:28:01;;;;;;;10.33;6.53;;;;;;;;;;4927602;29;20302;-77
2022/04/24 04:30:28;;;;;;;10.47;7.00;;;;;;;;;;4923000;29;20238;-79
2022/04/24 04:32:55;;;;;;;11.53;6.93;;;;;;;;;;4919208;29;20223;-78
2022/04/24 04:35:23;;;;;;;12.20;6.77;;;;;;;;;;4918518;29;20207;-78
2022/04/24 04:37:51;;;;;;;12.60;6.93;;;;;;;;;;4920131;29;20228;-80
2022/04/24 04:40:20;;;;;;;11.20;7.27;;;;;;;;;;4919600;29;20692;-78
2022/04/24 04:42:49;;;;;;;11.27;7.07;;;;;;;;;;4920669;29;20218;-77
2022/04/24 04:45:18;;;;;;;11.07;7.27;;;;;;;;;;4919853;29;20211;-78
2022/04/24 04:47:47;;;;;;;14.63;7.10;;;;;;;;;;4922424;29;20298;-77
2022/04/24 04:50:14;;;;;;;9.80;7.03;;;;;;;;;;4921450;29;20227;-79
2022/04/24 04:52:43;;;;;;;11.67;7.67;;;;;;;;;;4922120;29;20212;-78
2022/04/24 04:55:13;;;;;;;11.93;7.47;;;;;;;;;;4917088;29;20659;-78
2022/04/24 04:57:40;;;;;;;10.30;6.80;;;;;;;;;;4921180;29;20207;-78
2022/04/24 05:00:08;;;;;;;10.03;7.20;;;;;;;;;;4921214;29;20867;-79
2022/04/24 05:02:40;;;;;;;11.83;7.53;;;;;;;;;;4923348;29;21630;-79
2022/04/24 05:05:08;;;;;;;10.90;7.40;;;;;;;;;;4922241;29;20210;-79
2022/04/24 05:07:36;;;;;;;12.97;6.90;;;;;;;;;;4922317;29;20438;-79
2022/04/24 05:10:03;;;;;;;11.00;7.27;;;;;;;;;;4927685;29;20247;-79
2022/04/24 05:12:31;;;;;;;10.63;7.07;;;;;;;;;;4927970;29;20321;-77
2022/04/24 05:15:01;;;;;;;10.37;6.53;;;;;;;;;;4921795;29;20721;-79
2022/04/24 05:17:28;;;;;;;11.53;7.40;;;;;;;;;;4921510;29;20199;-79
2022/04/24 05:19:57;;;;;;;11.10;7.87;;;;;;;;;;4922683;29;20210;-79
2022/04/24 05:22:24;;;;;;;12.20;7.90;;;;;;;;;;4920072;29;20227;-80
2022/04/24 05:24:51;;;;;;;11.47;7.67;;;;;;;;;;4919525;29;20219;-78
2022/04/24 05:27:19;;;;;;;9.80;7.20;;;;;;;;;;4922550;29;20207;-76
2022/04/24 05:29:46;;;;;;;12.13;7.90;;;;;;;;;;4920994;29;20231;-78
2022/04/24 05:32:13;;;;;;;15.80;7.80;;;;;;;;;;4922860;29;20321;-80
2022/04/24 05:34:41;;;;;;;11.87;6.90;;;;;;;;;;4923854;29;20464;-79
2022/04/24 05:37:09;;;;;;;12.10;7.67;;;;;;;;;;4921289;29;20265;-78
2022/04/24 05:39:37;;;;;;;11.27;7.77;;;;;;;;;;4921290;29;20203;-79
2022/04/24 05:42:05;;;;;;;13.00;8.43;;;;;;;;;;4922902;29;20226;-79
2022/04/24 05:44:32;;;;;;;13.37;8.33;;;;;;;;;;4920809;29;20260;-79
2022/04/24 05:46:59;;;;;;;11.33;7.30;;;;;;;;;;4920265;29;20218;-79
2022/04/24 05:49:26;;;;;;;10.47;7.23;;;;;;;;;;4922539;29;20234;-76
2022/04/24 05:51:54;;;;;;;15.30;7.80;;;;;;;;;;4918015;29;20317;-77
2022/04/24 05:54:22;;;;;;;12.47;7.70;;;;;;;;;;4917485;29;20229;-78
2022/04/24 05:56:49;;;;;;;12.13;7.97;;;;;;;;;;4922690;29;21018;-78
2022/04/24 05:59:16;;;;;;;21.67;8.40;;;;;;;;;;4922107;29;20211;-78
2022/04/24 06:01:44;;;;;;;14.13;8.20;;;;;;;;;;4922605;29;20251;-78
2022/04/24 06:04:13;;;;;;;11.17;7.37;;;;;;;;;;4923664;29;20310;-77
2022/04/24 06:06:40;;;;;;;11.93;7.90;;;;;;;;;;4925336;29;20223;-80
2022/04/24 06:09:07;;;;;;;14.17;8.03;;;;;;;;;;4924416;29;20241;-79
2022/04/24 06:11:37;;;;;;;13.33;8.60;;;;;;;;;;4923882;29;20287;-77
2022/04/24 06:14:04;;;;;;;13.17;8.07;;;;;;;;;;4934373;29;20214;-78
2022/04/24 06:16:31;;;;;;;10.40;7.20;;;;;;;;;;4931724;29;20215;-78
2022/04/24 06:18:59;;;;;;;12.70;8.00;;;;;;;;;;4923837;29;20218;-77
2022/04/24 06:24:07;;;;;;;11.93;8.30;;;;;;;;;;4989841;23;20237;-77
2022/04/24 06:26:35;;;;;;;11.80;7.77;;;;;;;;;;4985198;28;20216;-77
2022/04/24 06:29:03;;;;;;;11.40;7.97;;;;;;;;;;4981866;28;20378;-77
2022/04/24 06:31:30;;;;;;;12.30;8.37;;;;;;;;;;4984378;28;20269;-77
2022/04/24 06:33:57;;;;;;;13.20;8.33;;;;;;;;;;4974820;28;20201;-78
2022/04/24 06:36:24;;;;;;;12.87;8.63;;;;;;;;;;4973393;28;20201;-77
2022/04/24 06:38:51;;;;;;;13.87;8.40;;;;;;;;;;4977280;28;20197;-78
2022/04/24 06:41:18;;;;;;;14.00;8.40;;;;;;;;;;4974506;28;20239;-75
2022/04/24 06:43:47;;;;;;;14.33;8.53;;;;;;;;;;4976816;28;20201;-76
2022/04/24 06:46:14;;;;;;;12.97;8.37;;;;;;;;;;4975515;28;20656;-79
2022/04/24 06:48:41;;;;;;;15.17;8.37;;;;;;;;;;4980633;28;20216;-77
2022/04/24 06:51:09;;;;;;;13.03;8.27;;;;;;;;;;4978657;28;20287;-76
2022/04/24 06:53:38;;;;;;;14.20;8.40;;;;;;;;;;4982709;28;20291;-75
2022/04/24 06:56:06;;;;;;;13.27;8.93;;;;;;;;;;4976219;28;21209;-77
2022/04/24 06:58:33;;;;;;;11.90;8.27;;;;;;;;;;4976955;28;20856;-78
2022/04/24 07:01:01;;;;;;;12.83;8.43;;;;;;;;;;4982211;28;20224;-77
2022/04/24 07:03:30;;;;;;;14.17;8.63;;;;;;;;;;4970899;28;20217;-78
2022/04/24 07:05:57;;;;;;;16.43;8.80;;;;;;;;;;4972299;28;20208;-77
2022/04/24 07:08:25;;;;;;;12.63;8.07;;;;;;;;;;4971067;28;20215;-77
2022/04/24 07:10:53;;;;;;;13.00;9.03;;;;;;;;;;4976190;28;20225;-74
2022/04/24 07:13:20;;;;;;;11.93;8.60;;;;;;;;;;4977471;28;20205;-78
2022/04/24 07:15:47;;;;;;;15.73;8.57;;;;;;;;;;4973564;28;21282;-77
2022/04/24 07:18:16;;;;;;;12.70;8.67;;;;;;;;;;4975046;28;21741;-78
2022/04/24 07:20:43;;;;;;;14.03;8.87;;;;;;;;;;4972812;28;20225;-78
2022/04/24 07:23:11;;;;;;;14.03;9.03;;;;;;;;;;4976528;28;20600;-77
2022/04/24 07:25:41;;;;;;;13.17;8.70;;;;;;;;;;4975713;28;20229;-76
2022/04/24 07:28:08;;;;;;;14.40;9.30;;;;;;;;;;4979728;28;20256;-77
2022/04/24 07:30:35;;;;;;;12.90;8.77;;;;;;;;;;4981405;28;20342;-78
2022/04/24 07:33:02;;;;;;;14.10;9.20;;;;;;;;;;4983469;28;20213;-77
2022/04/24 07:35:32;;;;;;;14.53;9.20;;;;;;;;;;4982910;28;20209;-78
2022/04/24 07:37:59;;;;;;;14.23;9.33;;;;;;;;;;4987419;28;20323;-78
2022/04/24 07:40:28;;;;;;;19.07;10.40;;;;;;;;;;4985685;28;20265;-79
2022/04/24 07:42:56;;;;;;;15.23;8.97;;;;;;;;;;4984111;28;20202;-78
2022/04/24 07:45:24;;;;;;;14.20;9.00;;;;;;;;;;4984151;28;20236;-78
2022/04/24 07:47:52;;;;;;;14.07;9.03;;;;;;;;;;4983316;28;20232;-79
2022/04/24 07:50:20;;;;;;;14.33;9.10;;;;;;;;;;4981513;28;20229;-78
2022/04/24 07:52:49;;;;;;;14.80;9.00;;;;;;;;;;4983962;28;20668;-78
2022/04/24 07:55:17;;;;;;;16.20;9.97;;;;;;;;;;4979839;28;20240;-77
2022/04/24 07:57:44;;;;;;;13.83;9.10;;;;;;;;;;4982191;28;20220;-78
2022/04/24 08:00:12;;;;;;;15.60;9.23;;;;;;;;;;4986672;28;20205;-78
2022/04/24 08:02:46;;;;;;;13.70;8.97;;;;;;;;;;4982856;28;20220;-78
2022/04/24 08:05:13;;;;;;;16.17;8.97;;;;;;;;;;4976751;28;20566;-77
2022/04/24 08:07:41;;;;;;;13.37;9.10;;;;;;;;;;4977750;28;20208;-78
2022/04/24 08:10:09;;;;;;;14.10;9.27;;;;;;;;;;4980197;28;20661;-77
2022/04/24 08:12:37;;;;;;;17.17;9.83;;;;;;;;;;4977118;28;20852;-77
2022/04/24 08:15:04;;;;;;;15.43;9.60;;;;;;;;;;4979509;28;20209;-77
2022/04/24 08:17:31;;;;;;;13.67;9.10;;;;;;;;;;4980793;28;20209;-76
2022/04/24 08:19:58;;;;;;;15.83;10.03;;;;;;;;;;4981437;28;20652;-77
2022/04/24 08:22:25;;;;;;;15.23;9.17;;;;;;;;;;4981937;28;20233;-79
2022/04/24 08:24:52;;;;;;;17.00;9.47;;;;;;;;;;4985782;28;20205;-79
2022/04/24 08:27:23;;;;;;;15.37;9.67;;;;;;;;;;4979061;28;20651;-79
2022/04/24 08:29:50;;;;;;;16.43;9.87;;;;;;;;;;4982900;28;20235;-76
2022/04/24 08:32:20;;;;;;;14.37;9.00;;;;;;;;;;4978896;28;20257;-80
2022/04/24 08:34:47;;;;;;;12.73;8.67;;;;;;;;;;4983167;28;20296;-75
2022/04/24 08:37:14;;;;;;;13.40;8.77;;;;;;;;;;4981625;28;20201;-77
2022/04/24 08:39:41;;;;;;;13.50;8.80;;;;;;;;;;4980159;28;20201;-77
2022/04/24 08:42:09;;;;;;;15.03;9.40;;;;;;;;;;4976384;28;20876;-77
2022/04/24 08:44:38;;;;;;;13.27;8.70;;;;;;;;;;4976471;28;20205;-75
2022/04/24 08:47:05;;;;;;;11.57;7.87;;;;;;;;;;4976261;28;20307;-78
2022/04/24 08:49:33;;;;;;;13.40;8.07;;;;;;;;;;4975793;28;20216;-77
2022/04/24 08:52:00;;;;;;;13.73;8.70;;;;;;;;;;4975442;28;20256;-78
2022/04/24 08:54:29;;;;;;;15.03;8.87;;;;;;;;;;4979895;28;20232;-78
2022/04/24 08:56:58;;;;;;;12.40;8.57;;;;;;;;;;4977847;28;20651;-77
2022/04/24 08:59:25;;;;;;;14.97;8.47;;;;;;;;;;4982003;28;20514;-77
2022/04/24 09:01:54;;;;;;;16.63;8.73;;;;;;;;;;4981854;28;20261;-77
2022/04/24 09:04:21;;;;;;;16.07;8.10;;;;;;;;;;4979058;28;20649;-76
2022/04/24 09:07:17;;;;;;;12.50;8.40;;;;;;;;;;4978407;28;20201;-77
2022/04/24 09:09:45;;;;;;;16.00;9.00;;;;;;;;;;4983042;28;20244;-77
2022/04/24 09:12:14;;;;;;;13.67;8.03;;;;;;;;;;4983359;28;20234;-77
2022/04/24 09:14:41;;;;;;;12.40;7.93;;;;;;;;;;4979625;28;20244;-77
2022/04/24 09:17:18;;;;;;;14.83;8.63;;;;;;;;;;4987859;28;20212;-77
2022/04/24 09:19:45;;;;;;;14.63;8.63;;;;;;;;;;4983833;28;20236;-78
2022/04/24 09:22:14;;;;;;;13.40;8.43;;;;;;;;;;4983641;28;20291;-78
2022/04/24 09:24:45;;;;;;;17.23;8.80;;;;;;;;;;4981846;28;20260;-78
2022/04/24 09:27:13;;;;;;;13.53;8.23;;;;;;;;;;4983620;28;20734;-78
2022/04/24 09:29:41;;;;;;;12.77;8.43;;;;;;;;;;4981315;28;20631;-75
2022/04/24 09:32:14;;;;;;;11.37;7.43;;;;;;;;;;4974025;28;20234;-77
2022/04/24 09:34:41;;;;;;;14.80;8.37;;;;;;;;;;4978317;28;20219;-75
2022/04/24 09:37:10;;;;;;;13.20;8.43;;;;;;;;;;4976480;28;20271;-75
2022/04/24 09:39:38;;;;;;;12.57;7.37;;;;;;;;;;4975157;28;20259;-75
2022/04/24 09:42:06;;;;;;;12.53;7.30;;;;;;;;;;4970971;28;20229;-76
2022/04/24 09:44:40;;;;;;;10.23;7.17;;;;;;;;;;4969045;28;20677;-75
2022/04/24 09:47:08;;;;;;;11.17;7.83;;;;;;;;;;4956757;28;20481;-76
2022/04/24 09:49:38;;;;;;;12.03;7.60;;;;;;;;;;4991709;28;20227;-75
2022/04/24 09:52:11;;;;;;;12.97;8.13;;;;;;;;;;4994795;28;20727;-75
2022/04/24 09:54:40;;;;;;;14.50;8.30;;;;;;;;;;4994057;28;20674;-77
2022/04/24 09:57:09;;;;;;;12.33;8.13;;;;;;;;;;4995463;28;20748;-78
2022/04/24 09:59:36;;;;;;;12.07;8.33;;;;;;;;;;4995733;28;20243;-75
2022/04/24 10:02:04;;;;;;;12.47;8.00;;;;;;;;;;4998162;28;20279;-76
2022/04/24 10:04:34;;;;;;;11.20;7.47;;;;;;;;;;4995267;28;20283;-76
2022/04/24 10:07:03;;;;;;;12.53;7.83;;;;;;;;;;4995013;28;20605;-76
2022/04/24 10:09:30;;;;;;;11.50;7.93;;;;;;;;;;4996385;28;20278;-76
2022/04/24 10:12:02;;;;;;;12.93;7.53;;;;;;;;;;4997186;28;20232;-76
2022/04/24 10:14:29;;;;;;;10.93;7.27;;;;;;;;;;4995016;28;20268;-76
2022/04/24 10:17:04;;;;;;;10.90;7.00;;;;;;;;;;4997324;28;20206;-76
2022/04/24 10:19:39;;;;;;;10.97;7.57;;;;;;;;;;4995451;28;20212;-77
2022/04/24 10:22:13;;;;;;;11.87;7.47;;;;;;;;;;4991008;28;20223;-76
2022/04/24 10:24:41;;;;;;;12.37;7.40;;;;;;;;;;4997457;28;20295;-75
2022/04/24 10:27:11;;;;;;;12.37;7.33;;;;;;;;;;4995408;28;20840;-76
2022/04/24 10:29:49;;;;;;;11.10;7.30;;;;;;;;;;4995765;28;20205;-75
2022/04/24 10:32:25;;;;;;;11.73;7.10;;;;;;;;;;4996400;28;20228;-74
2022/04/24 10:34:53;;;;;;;11.53;7.27;;;;;;;;;;5004922;28;20204;-76
2022/04/24 10:37:27;;;;;;;9.50;6.30;;;;;;;;;;4997053;28;20223;-76
2022/04/24 10:39:58;;;;;;;8.97;6.23;;;;;;;;;;4996984;28;20253;-75
2022/04/24 10:42:35;;;;;;;9.70;6.83;;;;;;;;;;4992869;28;20224;-76
2022/04/24 10:45:07;;;;;;;13.03;6.40;;;;;;;;;;4998490;28;20276;-76
2022/04/24 10:47:45;;;;;;;9.30;6.57;;;;;;;;;;4996186;28;20213;-76
2022/04/24 10:50:13;;;;;;;14.23;7.50;;;;;;;;;;4996657;28;20213;-75
2022/04/24 10:52:42;;;;;;;12.83;6.97;;;;;;;;;;4990334;28;20201;-76
2022/04/24 10:55:10;;;;;;;11.10;7.07;;;;;;;;;;4995484;28;20291;-76
2022/04/24 10:57:45;;;;;;;8.57;6.10;;;;;;;;;;4995032;28;20711;-77
2022/04/24 11:00:19;;;;;;;9.93;6.77;;;;;;;;;;4995717;28;20567;-76
2022/04/24 11:02:46;;;;;;;9.47;6.03;;;;;;;;;;4996679;28;20219;-76
2022/04/24 11:05:14;;;;;;;9.37;6.37;;;;;;;;;;5000182;28;20530;-75
2022/04/24 11:07:43;;;;;;;13.27;6.90;;;;;;;;;;4998827;28;20213;-77
2022/04/24 11:10:11;;;;;;;10.63;6.87;;;;;;;;;;4997136;28;20212;-76
2022/04/24 11:12:38;;;;;;;10.40;6.70;;;;;;;;;;4997248;28;20212;-76
2022/04/24 11:15:06;;;;;;;8.90;6.33;;;;;;;;;;4990463;28;20564;-76
2022/04/24 11:17:33;;;;;;;10.50;6.63;;;;;;;;;;4990698;28;20209;-77
2022/04/24 11:20:03;;;;;;;11.83;6.67;;;;;;;;;;5000440;28;20278;-77
2022/04/24 11:22:31;;;;;;;8.70;6.40;;;;;;;;;;4994873;28;20236;-76
2022/04/24 11:25:00;;;;;;;8.27;6.30;;;;;;;;;;4994827;28;20647;-75
2022/04/24 11:27:28;;;;;;;13.67;6.47;;;;;;;;;;4994608;28;20208;-78
2022/04/24 11:29:55;;;;;;;8.73;6.10;;;;;;;;;;4991691;28;20588;-77
2022/04/24 11:32:22;;;;;;;11.27;6.80;;;;;;;;;;4999497;28;20264;-76
2022/04/24 11:34:49;;;;;;;11.63;6.63;;;;;;;;;;4992756;28;20299;-74
2022/04/24 11:37:16;;;;;;;10.23;6.73;;;;;;;;;;4992834;28;20663;-76
2022/04/24 11:39:43;;;;;;;10.67;6.97;;;;;;;;;;4992023;28;20580;-77
2022/04/24 11:42:12;;;;;;;13.00;7.13;;;;;;;;;;4992246;28;20216;-74
2022/04/24 11:50:15;;;;;;;12.27;6.80;;;;;;;;;;4999111;28;20207;-76
2022/04/24 11:52:43;;;;;;;12.03;6.60;;;;;;;;;;4994508;28;20258;-77
2022/04/24 11:55:12;;;;;;;10.67;7.37;;;;;;;;;;4995239;28;20224;-77
2022/04/24 11:57:41;;;;;;;11.53;6.83;;;;;;;;;;4995522;28;20289;-76
2022/04/24 12:00:12;;;;;;;10.07;6.60;;;;;;;;;;4997994;28;20326;-76
2022/04/24 12:02:39;;;;;;;11.37;6.73;;;;;;;;;;4997553;28;20204;-76
2022/04/24 12:05:10;;;;;;;9.70;6.60;;;;;;;;;;4996069;28;20779;-76
2022/04/24 12:07:42;;;;;;;11.93;7.20;;;;;;;;;;4995734;28;20215;-76
2022/04/24 12:10:10;;;;;;;9.27;7.20;;;;;;;;;;4996478;28;20494;-78
2022/04/24 12:12:48;;;;;;;11.97;7.30;;;;;;;;;;4990353;28;20233;-74
2022/04/24 12:15:15;;;;;;;10.33;6.73;;;;;;;;;;4992227;28;20211;-75
2022/04/24 12:17:49;;;;;;;10.33;6.67;;;;;;;;;;4996512;28;20574;-75
2022/04/24 12:20:16;;;;;;;8.50;5.87;;;;;;;;;;4992631;28;20319;-77
2022/04/24 12:22:44;;;;;;;8.40;5.90;;;;;;;;;;4986602;28;20219;-75
2022/04/24 12:25:12;;;;;;;9.73;6.30;;;;;;;;;;4990587;28;20287;-75
2022/04/24 12:27:39;;;;;;;10.27;6.37;;;;;;;;;;4991878;28;20524;-75
2022/04/24 12:30:09;;;;;;;9.80;7.30;;;;;;;;;;5007025;22;20667;-76
2022/04/24 12:32:38;;;;;;;7.97;6.00;;;;;;;;;;4976986;28;20221;-75
2022/04/24 12:35:06;;;;;;;11.43;6.93;;;;;;;;;;4978908;28;20202;-79
2022/04/24 12:37:34;;;;;;;10.60;7.07;;;;;;;;;;4978020;28;20639;-76
2022/04/24 12:40:01;;;;;;;9.83;7.40;;;;;;;;;;4970701;28;20220;-76
2022/04/24 12:42:28;;;;;;;9.70;7.00;;;;;;;;;;4980609;28;20224;-79
2022/04/24 12:44:56;;;;;;;9.70;7.07;;;;;;;;;;4977676;28;20291;-78
2022/04/24 12:47:26;;;;;;;10.03;7.13;;;;;;;;;;4978144;28;20206;-77
2022/04/24 12:49:53;;;;;;;11.67;7.00;;;;;;;;;;4977010;28;20205;-75
2022/04/24 12:52:21;;;;;;;12.97;7.20;;;;;;;;;;4988056;23;20226;-79
2022/04/24 12:54:51;;;;;;;8.40;6.23;;;;;;;;;;4995288;28;20246;-81
2022/04/24 12:57:18;;;;;;;8.83;6.40;;;;;;;;;;4994285;28;20224;-76
2022/04/24 12:59:45;;;;;;;12.73;6.77;;;;;;;;;;4993663;28;20216;-77
2022/04/24 13:02:13;;;;;;;12.13;7.33;;;;;;;;;;4991928;28;20319;-79
2022/04/24 13:04:42;;;;;;;11.27;7.50;;;;;;;;;;4996130;28;20209;-77
2022/04/24 13:07:10;;;;;;;11.33;6.50;;;;;;;;;;4994810;28;20464;-79
2022/04/24 13:09:37;;;;;;;10.73;6.67;;;;;;;;;;4996663;28;20239;-79
2022/04/24 13:12:05;;;;;;;9.93;6.23;;;;;;;;;;4993473;28;20318;-77
2022/04/24 13:14:32;;;;;;;9.63;6.77;;;;;;;;;;4998981;28;20211;-77
2022/04/24 13:19:45;;;;;;;9.53;6.13;;;;;;;;;;4993537;28;20720;-76
2022/04/24 13:22:13;;;;;;;10.77;6.03;;;;;;;;;;4998328;28;20773;-78
2022/04/24 13:24:40;;;;;;;8.77;6.23;;;;;;;;;;4995640;28;20252;-76
2022/04/24 13:27:08;;;;;;;11.07;5.53;;;;;;;;;;4999917;28;20208;-75
2022/04/24 13:29:35;;;;;;;6.47;5.17;;;;;;;;;;4998025;28;20656;-75
2022/04/24 13:32:04;;;;;;;8.40;5.80;;;;;;;;;;4996358;28;20235;-75
2022/04/24 13:34:31;;;;;;;10.30;6.50;;;;;;;;;;4995859;28;20550;-74
2022/04/24 13:39:44;;;;;;;8.07;6.03;;;;;;;;;;5003488;28;20290;-76
2022/04/24 13:42:13;;;;;;;8.07;5.63;;;;;;;;;;4999235;28;20223;-74
2022/04/24 13:44:40;;;;;;;9.03;5.80;;;;;;;;;;4995945;28;20491;-74
2022/04/24 13:47:08;;;;;;;7.77;5.30;;;;;;;;;;4999007;28;20718;-74
2022/04/24 13:49:35;;;;;;;14.10;5.63;;;;;;;;;;4992449;28;20295;-76
2022/04/24 13:52:04;;;;;;;8.43;5.50;;;;;;;;;;5000485;28;20251;-74
2022/04/24 13:54:31;;;;;;;6.80;5.20;;;;;;;;;;4999142;28;20209;-73
2022/04/24 13:56:59;;;;;;;7.07;4.90;;;;;;;;;;4994558;28;20612;-73
2022/04/24 13:59:26;;;;;;;6.87;4.70;;;;;;;;;;4995597;28;20265;-73
2022/04/24 14:01:54;;;;;;;8.00;5.30;;;;;;;;;;4994403;28;20221;-72
2022/04/24 14:04:21;;;;;;;6.83;5.10;;;;;;;;;;4999269;28;20205;-72
2022/04/24 14:06:48;;;;;;;8.77;5.30;;;;;;;;;;4994062;28;20300;-76
2022/04/24 14:09:17;;;;;;;9.37;5.40;;;;;;;;;;5000509;28;20212;-77
2022/04/24 14:11:44;;;;;;;8.53;5.90;;;;;;;;;;4994397;28;21060;-76
2022/04/24 14:14:12;;;;;;;7.33;5.53;;;;;;;;;;4992228;28;20263;-73
2022/04/24 14:16:39;;;;;;;8.97;5.03;;;;;;;;;;4995051;28;20677;-76
2022/04/24 14:19:06;;;;;;;7.23;5.00;;;;;;;;;;4997856;28;20243;-76
2022/04/24 14:21:33;;;;;;;9.70;5.10;;;;;;;;;;4997709;28;20605;-77
2022/04/24 14:24:01;;;;;;;13.37;5.90;;;;;;;;;;4995213;28;20303;-77
2022/04/24 14:26:29;;;;;;;8.50;5.80;;;;;;;;;;4995998;28;20289;-77
2022/04/24 14:28:57;;;;;;;8.90;5.50;;;;;;;;;;4995646;28;20252;-75
2022/04/24 14:31:26;;;;;;;8.83;6.13;;;;;;;;;;4995801;28;20812;-77
2022/04/24 14:33:54;;;;;;;8.73;5.90;;;;;;;;;;4999060;28;20659;-77
2022/04/24 14:36:21;;;;;;;10.10;6.23;;;;;;;;;;5000771;28;20207;-77
2022/04/24 14:38:48;;;;;;;8.03;5.70;;;;;;;;;;4995790;28;20222;-77
2022/04/24 14:41:16;;;;;;;6.70;5.00;;;;;;;;;;4997405;28;20231;-77
2022/04/24 14:43:44;;;;;;;9.93;5.57;;;;;;;;;;4998908;28;20204;-77
2022/04/24 14:57:11;;;;;;;7.57;5.10;;;;;;;;;;5001801;28;20215;-76
2022/04/24 14:59:40;;;;;;;9.67;6.00;;;;;;;;;;4999916;28;20232;-75
2022/04/24 15:02:07;;;;;;;8.33;5.70;;;;;;;;;;4998945;28;20319;-77
2022/04/24 15:04:35;;;;;;;8.30;5.90;;;;;;;;;;5001699;28;20228;-76
2022/04/24 15:07:02;;;;;;;9.23;6.17;;;;;;;;;;4995578;28;20205;-77
2022/04/24 15:09:29;;;;;;;9.00;6.07;;;;;;;;;;4997506;28;20715;-74
2022/04/24 15:11:56;;;;;;;9.53;5.90;;;;;;;;;;4996576;28;20232;-77